Meteo Giornale » Osservazioni meteo Stati Uniti (USA) » Santa Fe Co
ore: 12:53 - Osservazioni Meteo Santa Fe Co
Lat. 35° 36' N Lon. 106° 5' W Alt. 1934 metri s.l.m.
29 °C
Nuvoloso
Temp. 24 Ore
17 °C
30 °C
Sud-Est
18.5 Km/h
Dew point 7 °C
Umidità 25 %
Visibilità 10 Km
Il sole sorge alle ore 06:35
Il sole tramonta alle ore 19:33
| Data e Ora | Cielo e Fenomeni | T °C | DP °C | Um. % | Pres. hPa | Vis. km | Vento km/h | |
|---|---|---|---|---|---|---|---|---|
| Oggi h: 12:53 | Nuvoloso | 29 | 7 | 25 | 1024 | 10 | SE 18.5 | |
| Oggi h: 11:53 | Molto Nuvoloso | 28 | 7 | 26 | 1024 | 10 | NO 14.8 | |
| Oggi h: 10:53 | Poco Nuvoloso | 27 | 8 | 30 | 1024 | 10 | N 22.2 | |
| Oggi h: 09:53 | Nuvoloso | 26 | 7 | 29 | 1024 | 10 | N/NE 33.3 | |
| Oggi h: 08:53 | Nuvoloso | 22 | 9 | 43 | 1025 | 10 | N 38.8 | |
| Oggi h: 07:53 | Nuvoloso | 20 | 8 | 45 | 1025 | 10 | N 37 | |
| Oggi h: 06:53 | Sereno | 17 | 9 | 59 | 1025 | 10 | N/NO 14.8 | |
| Oggi h: 05:53 | Pioggia | 19 | 8 | 48 | 1024 | 10 | N 0 | |
| Oggi h: 04:53 | Molto Nuvoloso | 20 | 8 | 45 | 1024 | 10 | N 22.2 | |
| Oggi h: 03:53 | Nuvoloso | 20 | 8 | 45 | 1023 | 10 | N 27.8 | |
| Oggi h: 02:53 | Nuvoloso | 21 | 8 | 43 | 1023 | 10 | N 25.9 | |
| Oggi h: 01:53 | Coperto | 22 | 8 | 40 | 1023 | 10 | N 24 | |
| Oggi h: 00:53 | Molto Nuvoloso | 22 | 7 | 37 | 1024 | 10 | N/NE 7.4 | |
| Ieri h: 23:53 | Nuvoloso | 22 | 7 | 37 | 1023 | 10 | NE 11.1 | |
| Ieri h: 22:53 | Sereno | 22 | 7 | 37 | 1023 | 10 | N 7.4 | |
| Ieri h: 21:53 | Sereno | 24 | 8 | 35 | 1023 | 10 | O/SO 7.4 | |
| Ieri h: 20:53 | Sereno | 24 | 7 | 33 | 1022 | 10 | N 5.5 | |
| Ieri h: 19:53 | Sereno | 26 | 7 | 29 | 1021 | 10 | N 9.3 | |
| Ieri h: 18:53 | Poco Nuvoloso | 29 | 7 | 25 | 1021 | 10 | N/NE 7.4 | |
| Ieri h: 17:53 | Sereno | 29 | 7 | 25 | 1021 | 10 | N 7.4 | |
| Ieri h: 16:53 | Molto Nuvoloso | 29 | 7 | 25 | 1021 | 10 | N 0 | |
| Ieri h: 15:53 | Poco Nuvoloso | 30 | 6 | 22 | 1022 | 10 | S 18.5 | |
| Ieri h: 14:53 | Molto Nuvoloso | 30 | 7 | 23 | 1022 | 10 | N 11.1 | |
| Ieri h: 13:53 | Nuvoloso | 30 | 7 | 23 | 1023 | 10 | O/SO 18.5 | |



